sensor_id;sensor_type;location;lat;lon;timestamp;temperature;humidity
16999;DHT22;10211;49.476;11.010;2023-05-07T00:00:23;13.50;99.90
16999;DHT22;10211;49.476;11.010;2023-05-07T00:02:50;13.40;99.90
16999;DHT22;10211;49.476;11.010;2023-05-07T00:05:16;13.40;99.90
16999;DHT22;10211;49.476;11.010;2023-05-07T00:07:43;13.40;99.90
16999;DHT22;10211;49.476;11.010;2023-05-07T00:10:10;13.50;99.90
16999;DHT22;10211;49.476;11.010;2023-05-07T00:12:40;13.50;99.90
16999;DHT22;10211;49.476;11.010;2023-05-07T00:15:08;13.50;99.90
16999;DHT22;10211;49.476;11.010;2023-05-07T00:17:34;13.60;99.90
16999;DHT22;10211;49.476;11.010;2023-05-07T00:20:02;13.60;99.90
16999;DHT22;10211;49.476;11.010;2023-05-07T00:22:29;13.60;99.90
16999;DHT22;10211;49.476;11.010;2023-05-07T00:24:56;13.90;99.90
16999;DHT22;10211;49.476;11.010;2023-05-07T00:27:23;13.60;99.90
16999;DHT22;10211;49.476;11.010;2023-05-07T00:29:51;13.60;99.90
16999;DHT22;10211;49.476;11.010;2023-05-07T00:32:18;13.60;99.90
16999;DHT22;10211;49.476;11.010;2023-05-07T00:34:44;13.60;99.90
16999;DHT22;10211;49.476;11.010;2023-05-07T00:37:11;13.60;99.90
16999;DHT22;10211;49.476;11.010;2023-05-07T00:39:38;13.60;99.90
16999;DHT22;10211;49.476;11.010;2023-05-07T00:42:05;13.60;99.90
16999;DHT22;10211;49.476;11.010;2023-05-07T00:44:31;13.70;99.90
16999;DHT22;10211;49.476;11.010;2023-05-07T00:47:02;13.70;99.90
16999;DHT22;10211;49.476;11.010;2023-05-07T00:49:37;13.60;99.90
16999;DHT22;10211;49.476;11.010;2023-05-07T00:52:05;13.60;99.90
16999;DHT22;10211;49.476;11.010;2023-05-07T00:54:32;13.60;99.90
16999;DHT22;10211;49.476;11.010;2023-05-07T00:56:59;13.70;99.90
16999;DHT22;10211;49.476;11.010;2023-05-07T00:59:27;13.70;99.90
16999;DHT22;10211;49.476;11.010;2023-05-07T01:01:54;13.60;99.90
16999;DHT22;10211;49.476;11.010;2023-05-07T01:04:22;13.60;99.90
16999;DHT22;10211;49.476;11.010;2023-05-07T01:06:49;13.70;99.90
16999;DHT22;10211;49.476;11.010;2023-05-07T01:09:16;13.60;99.90
16999;DHT22;10211;49.476;11.010;2023-05-07T01:11:43;13.60;99.90
16999;DHT22;10211;49.476;11.010;2023-05-07T01:14:10;13.60;99.90
16999;DHT22;10211;49.476;11.010;2023-05-07T01:16:37;13.70;99.90
16999;DHT22;10211;49.476;11.010;2023-05-07T01:19:07;13.70;99.90
16999;DHT22;10211;49.476;11.010;2023-05-07T01:21:38;13.60;99.90
16999;DHT22;10211;49.476;11.010;2023-05-07T01:24:07;13.60;99.90
16999;DHT22;10211;49.476;11.010;2023-05-07T01:26:33;13.70;99.90
16999;DHT22;10211;49.476;11.010;2023-05-07T01:29:00;13.70;99.90
16999;DHT22;10211;49.476;11.010;2023-05-07T01:31:27;13.70;99.90
16999;DHT22;10211;49.476;11.010;2023-05-07T01:33:56;13.70;99.90
16999;DHT22;10211;49.476;11.010;2023-05-07T01:36:23;13.70;99.90
16999;DHT22;10211;49.476;11.010;2023-05-07T01:38:53;13.70;99.90
16999;DHT22;10211;49.476;11.010;2023-05-07T01:41:21;13.70;99.90
16999;DHT22;10211;49.476;11.010;2023-05-07T01:43:50;13.70;99.90
16999;DHT22;10211;49.476;11.010;2023-05-07T01:46:18;13.70;99.90
16999;DHT22;10211;49.476;11.010;2023-05-07T01:48:45;13.70;99.90
16999;DHT22;10211;49.476;11.010;2023-05-07T01:51:12;13.70;99.90
16999;DHT22;10211;49.476;11.010;2023-05-07T01:53:39;13.70;99.90
16999;DHT22;10211;49.476;11.010;2023-05-07T01:56:07;13.70;99.90
16999;DHT22;10211;49.476;11.010;2023-05-07T01:58:35;13.70;99.90
16999;DHT22;10211;49.476;11.010;2023-05-07T02:01:02;13.70;99.90
16999;DHT22;10211;49.476;11.010;2023-05-07T02:03:28;13.60;99.90
16999;DHT22;10211;49.476;11.010;2023-05-07T02:05:56;13.60;99.90
16999;DHT22;10211;49.476;11.010;2023-05-07T02:08:22;13.60;99.90
16999;DHT22;10211;49.476;11.010;2023-05-07T02:10:49;13.70;99.90
16999;DHT22;10211;49.476;11.010;2023-05-07T02:13:16;13.60;99.90
16999;DHT22;10211;49.476;11.010;2023-05-07T02:15:44;13.60;99.90
16999;DHT22;10211;49.476;11.010;2023-05-07T02:18:16;13.50;99.90
16999;DHT22;10211;49.476;11.010;2023-05-07T02:20:43;13.50;99.90
16999;DHT22;10211;49.476;11.010;2023-05-07T02:23:09;13.50;99.90
16999;DHT22;10211;49.476;11.010;2023-05-07T02:25:36;13.40;99.90
16999;DHT22;10211;49.476;11.010;2023-05-07T02:28:03;13.40;99.90
16999;DHT22;10211;49.476;11.010;2023-05-07T02:30:29;13.40;99.90
16999;DHT22;10211;49.476;11.010;2023-05-07T02:32:57;13.30;99.90
16999;DHT22;10211;49.476;11.010;2023-05-07T02:35:24;13.30;99.90
16999;DHT22;10211;49.476;11.010;2023-05-07T02:37:51;13.30;99.90
16999;DHT22;10211;49.476;11.010;2023-05-07T02:40:18;13.20;99.90
16999;DHT22;10211;49.476;11.010;2023-05-07T02:42:45;13.10;99.90
16999;DHT22;10211;49.476;11.010;2023-05-07T02:45:12;13.00;99.90
16999;DHT22;10211;49.476;11.010;2023-05-07T02:47:39;13.00;99.90
16999;DHT22;10211;49.476;11.010;2023-05-07T02:50:08;12.90;99.90
16999;DHT22;10211;49.476;11.010;2023-05-07T02:52:35;12.80;99.90
16999;DHT22;10211;49.476;11.010;2023-05-07T02:55:03;12.80;99.90
16999;DHT22;10211;49.476;11.010;2023-05-07T02:57:30;12.70;99.90
16999;DHT22;10211;49.476;11.010;2023-05-07T02:59:58;12.60;99.90
16999;DHT22;10211;49.476;11.010;2023-05-07T03:02:24;12.60;99.90
16999;DHT22;10211;49.476;11.010;2023-05-07T03:04:51;12.50;99.90
16999;DHT22;10211;49.476;11.010;2023-05-07T03:07:19;12.40;99.90
16999;DHT22;10211;49.476;11.010;2023-05-07T03:09:46;12.40;99.90
16999;DHT22;10211;49.476;11.010;2023-05-07T03:12:13;12.30;99.90
16999;DHT22;10211;49.476;11.010;2023-05-07T03:14:39;12.20;99.90
16999;DHT22;10211;49.476;11.010;2023-05-07T03:17:06;12.20;99.90
16999;DHT22;10211;49.476;11.010;2023-05-07T03:19:33;12.20;99.90
16999;DHT22;10211;49.476;11.010;2023-05-07T03:21:59;12.10;99.90
16999;DHT22;10211;49.476;11.010;2023-05-07T03:24:27;12.10;99.90
16999;DHT22;10211;49.476;11.010;2023-05-07T03:26:54;12.00;99.90
16999;DHT22;10211;49.476;11.010;2023-05-07T03:29:21;12.00;99.90
16999;DHT22;10211;49.476;11.010;2023-05-07T03:31:48;12.00;99.90
16999;DHT22;10211;49.476;11.010;2023-05-07T03:34:14;11.90;99.90
16999;DHT22;10211;49.476;11.010;2023-05-07T03:36:42;11.90;99.90
16999;DHT22;10211;49.476;11.010;2023-05-07T03:39:09;11.90;99.90
16999;DHT22;10211;49.476;11.010;2023-05-07T03:41:37;11.90;99.90
16999;DHT22;10211;49.476;11.010;2023-05-07T03:44:04;11.90;99.90
16999;DHT22;10211;49.476;11.010;2023-05-07T03:46:30;11.90;99.90
16999;DHT22;10211;49.476;11.010;2023-05-07T03:48:58;11.90;99.90
16999;DHT22;10211;49.476;11.010;2023-05-07T03:51:25;11.80;99.90
16999;DHT22;10211;49.476;11.010;2023-05-07T03:53:52;11.80;99.90
16999;DHT22;10211;49.476;11.010;2023-05-07T03:56:19;11.80;99.90
16999;DHT22;10211;49.476;11.010;2023-05-07T03:58:47;11.80;99.90
16999;DHT22;10211;49.476;11.010;2023-05-07T04:01:14;11.80;99.90
16999;DHT22;10211;49.476;11.010;2023-05-07T04:03:41;11.70;99.90
16999;DHT22;10211;49.476;11.010;2023-05-07T04:06:08;11.70;99.90
16999;DHT22;10211;49.476;11.010;2023-05-07T04:08:35;11.70;99.90
16999;DHT22;10211;49.476;11.010;2023-05-07T04:11:01;11.70;99.90
16999;DHT22;10211;49.476;11.010;2023-05-07T04:13:29;11.70;99.90
16999;DHT22;10211;49.476;11.010;2023-05-07T04:15:57;11.80;99.90
16999;DHT22;10211;49.476;11.010;2023-05-07T04:18:24;11.80;99.90
16999;DHT22;10211;49.476;11.010;2023-05-07T04:20:51;11.90;99.90
16999;DHT22;10211;49.476;11.010;2023-05-07T04:23:17;12.00;99.90
16999;DHT22;10211;49.476;11.010;2023-05-07T04:25:44;12.10;99.90
16999;DHT22;10211;49.476;11.010;2023-05-07T04:28:11;12.10;99.90
16999;DHT22;10211;49.476;11.010;2023-05-07T04:30:39;12.20;99.90
16999;DHT22;10211;49.476;11.010;2023-05-07T04:33:08;12.40;99.90
16999;DHT22;10211;49.476;11.010;2023-05-07T04:35:35;12.50;99.90
16999;DHT22;10211;49.476;11.010;2023-05-07T04:38:02;12.50;99.90
16999;DHT22;10211;49.476;11.010;2023-05-07T04:40:29;12.60;99.90
16999;DHT22;10211;49.476;11.010;2023-05-07T04:42:55;12.70;99.90
16999;DHT22;10211;49.476;11.010;2023-05-07T04:45:22;12.80;99.90
16999;DHT22;10211;49.476;11.010;2023-05-07T04:47:49;12.90;99.90
16999;DHT22;10211;49.476;11.010;2023-05-07T04:50:17;13.00;99.90
16999;DHT22;10211;49.476;11.010;2023-05-07T04:52:45;13.10;99.90
16999;DHT22;10211;49.476;11.010;2023-05-07T04:55:12;13.20;99.90
16999;DHT22;10211;49.476;11.010;2023-05-07T04:57:39;13.30;99.90
16999;DHT22;10211;49.476;11.010;2023-05-07T05:00:07;13.40;99.90
16999;DHT22;10211;49.476;11.010;2023-05-07T05:02:35;13.50;99.90
16999;DHT22;10211;49.476;11.010;2023-05-07T05:05:02;13.60;99.90
16999;DHT22;10211;49.476;11.010;2023-05-07T05:07:30;13.70;99.90
16999;DHT22;10211;49.476;11.010;2023-05-07T05:09:57;14.00;99.90
16999;DHT22;10211;49.476;11.010;2023-05-07T05:12:24;14.00;99.90
16999;DHT22;10211;49.476;11.010;2023-05-07T05:14:50;14.10;99.90
16999;DHT22;10211;49.476;11.010;2023-05-07T05:17:17;14.30;99.90
16999;DHT22;10211;49.476;11.010;2023-05-07T05:19:44;14.50;99.90
16999;DHT22;10211;49.476;11.010;2023-05-07T05:22:10;14.60;99.90
16999;DHT22;10211;49.476;11.010;2023-05-07T05:24:38;14.70;99.90
16999;DHT22;10211;49.476;11.010;2023-05-07T05:27:05;14.90;99.90
16999;DHT22;10211;49.476;11.010;2023-05-07T05:29:32;15.20;99.90
16999;DHT22;10211;49.476;11.010;2023-05-07T05:31:59;15.40;99.90
16999;DHT22;10211;49.476;11.010;2023-05-07T05:34:25;15.40;99.90
16999;DHT22;10211;49.476;11.010;2023-05-07T05:36:53;15.60;99.90
16999;DHT22;10211;49.476;11.010;2023-05-07T05:39:20;15.60;99.90
16999;DHT22;10211;49.476;11.010;2023-05-07T05:41:49;15.70;99.90
16999;DHT22;10211;49.476;11.010;2023-05-07T05:44:16;15.70;99.90
16999;DHT22;10211;49.476;11.010;2023-05-07T05:46:43;15.60;99.90
16999;DHT22;10211;49.476;11.010;2023-05-07T05:49:10;15.60;99.90
16999;DHT22;10211;49.476;11.010;2023-05-07T05:51:36;15.50;99.90
16999;DHT22;10211;49.476;11.010;2023-05-07T05:54:03;15.40;99.90
16999;DHT22;10211;49.476;11.010;2023-05-07T05:56:30;15.30;99.90
16999;DHT22;10211;49.476;11.010;2023-05-07T05:58:58;15.30;99.90
16999;DHT22;10211;49.476;11.010;2023-05-07T06:01:25;15.30;99.90
16999;DHT22;10211;49.476;11.010;2023-05-07T06:03:52;15.30;99.90
16999;DHT22;10211;49.476;11.010;2023-05-07T06:06:18;15.30;99.90
16999;DHT22;10211;49.476;11.010;2023-05-07T06:08:45;15.20;99.90
16999;DHT22;10211;49.476;11.010;2023-05-07T06:11:12;15.20;99.90
16999;DHT22;10211;49.476;11.010;2023-05-07T06:13:38;15.20;99.90
16999;DHT22;10211;49.476;11.010;2023-05-07T06:16:07;15.30;99.90
16999;DHT22;10211;49.476;11.010;2023-05-07T06:18:33;15.40;99.90
16999;DHT22;10211;49.476;11.010;2023-05-07T06:21:01;15.50;99.90
16999;DHT22;10211;49.476;11.010;2023-05-07T06:23:28;15.70;99.90
16999;DHT22;10211;49.476;11.010;2023-05-07T06:25:54;15.90;99.90
16999;DHT22;10211;49.476;11.010;2023-05-07T06:28:21;16.20;99.90
16999;DHT22;10211;49.476;11.010;2023-05-07T06:30:48;16.30;99.90
16999;DHT22;10211;49.476;11.010;2023-05-07T06:33:16;16.50;99.90
16999;DHT22;10211;49.476;11.010;2023-05-07T06:35:45;16.60;99.90
16999;DHT22;10211;49.476;11.010;2023-05-07T06:38:11;16.80;99.90
16999;DHT22;10211;49.476;11.010;2023-05-07T06:40:38;16.90;99.90
16999;DHT22;10211;49.476;11.010;2023-05-07T06:43:05;16.90;99.90
16999;DHT22;10211;49.476;11.010;2023-05-07T06:45:31;17.00;99.90
16999;DHT22;10211;49.476;11.010;2023-05-07T06:47:58;17.10;99.90
16999;DHT22;10211;49.476;11.010;2023-05-07T06:50:26;17.20;99.90
16999;DHT22;10211;49.476;11.010;2023-05-07T06:52:53;17.20;99.90
16999;DHT22;10211;49.476;11.010;2023-05-07T06:55:20;17.40;99.90
16999;DHT22;10211;49.476;11.010;2023-05-07T06:57:46;17.60;99.90
16999;DHT22;10211;49.476;11.010;2023-05-07T07:00:14;17.80;99.90
16999;DHT22;10211;49.476;11.010;2023-05-07T07:02:41;18.20;99.90
16999;DHT22;10211;49.476;11.010;2023-05-07T07:05:08;18.50;99.90
16999;DHT22;10211;49.476;11.010;2023-05-07T07:07:36;18.80;99.90
16999;DHT22;10211;49.476;11.010;2023-05-07T07:10:03;19.00;99.90
16999;DHT22;10211;49.476;11.010;2023-05-07T07:12:30;19.10;99.90
16999;DHT22;10211;49.476;11.010;2023-05-07T07:14:57;19.40;99.90
16999;DHT22;10211;49.476;11.010;2023-05-07T07:17:24;19.50;98.60
16999;DHT22;10211;49.476;11.010;2023-05-07T07:19:50;19.40;98.10
16999;DHT22;10211;49.476;11.010;2023-05-07T07:22:17;19.30;97.80
16999;DHT22;10211;49.476;11.010;2023-05-07T07:24:45;19.40;97.90
16999;DHT22;10211;49.476;11.010;2023-05-07T07:27:12;19.60;97.70
16999;DHT22;10211;49.476;11.010;2023-05-07T07:29:38;19.70;97.30
16999;DHT22;10211;49.476;11.010;2023-05-07T07:32:05;20.00;96.80
16999;DHT22;10211;49.476;11.010;2023-05-07T07:34:32;20.20;96.60
16999;DHT22;10211;49.476;11.010;2023-05-07T07:36:59;20.40;95.60
16999;DHT22;10211;49.476;11.010;2023-05-07T07:39:30;20.20;94.80
16999;DHT22;10211;49.476;11.010;2023-05-07T07:41:58;20.00;94.90
16999;DHT22;10211;49.476;11.010;2023-05-07T07:44:25;20.00;95.00
16999;DHT22;10211;49.476;11.010;2023-05-07T07:46:52;19.80;95.70
16999;DHT22;10211;49.476;11.010;2023-05-07T07:49:18;19.90;96.00
16999;DHT22;10211;49.476;11.010;2023-05-07T07:51:45;20.00;95.90
16999;DHT22;10211;49.476;11.010;2023-05-07T07:54:12;20.00;94.70
16999;DHT22;10211;49.476;11.010;2023-05-07T07:56:39;20.10;95.10
16999;DHT22;10211;49.476;11.010;2023-05-07T07:59:07;20.10;94.60
16999;DHT22;10211;49.476;11.010;2023-05-07T08:01:33;19.90;94.70
16999;DHT22;10211;49.476;11.010;2023-05-07T08:04:00;20.00;94.80
16999;DHT22;10211;49.476;11.010;2023-05-07T08:06:28;20.10;94.50
16999;DHT22;10211;49.476;11.010;2023-05-07T08:08:55;20.40;94.70
16999;DHT22;10211;49.476;11.010;2023-05-07T08:11:22;20.50;94.10
16999;DHT22;10211;49.476;11.010;2023-05-07T08:13:48;20.90;93.70
16999;DHT22;10211;49.476;11.010;2023-05-07T08:16:17;21.10;93.80
16999;DHT22;10211;49.476;11.010;2023-05-07T08:18:43;21.20;92.90
16999;DHT22;10211;49.476;11.010;2023-05-07T08:21:10;21.20;92.90
16999;DHT22;10211;49.476;11.010;2023-05-07T08:23:37;21.20;92.30
16999;DHT22;10211;49.476;11.010;2023-05-07T08:26:04;21.50;92.30
16999;DHT22;10211;49.476;11.010;2023-05-07T08:28:31;21.60;91.90
16999;DHT22;10211;49.476;11.010;2023-05-07T08:30:57;21.80;91.70
16999;DHT22;10211;49.476;11.010;2023-05-07T08:33:27;21.90;91.60
16999;DHT22;10211;49.476;11.010;2023-05-07T08:35:54;22.10;91.40
16999;DHT22;10211;49.476;11.010;2023-05-07T08:38:20;22.50;91.20
16999;DHT22;10211;49.476;11.010;2023-05-07T08:40:47;22.40;90.70
16999;DHT22;10211;49.476;11.010;2023-05-07T08:43:14;22.60;90.60
16999;DHT22;10211;49.476;11.010;2023-05-07T08:45:41;22.60;89.20
16999;DHT22;10211;49.476;11.010;2023-05-07T08:48:13;22.50;88.50
16999;DHT22;10211;49.476;11.010;2023-05-07T08:50:42;22.50;87.50
16999;DHT22;10211;49.476;11.010;2023-05-07T08:53:09;22.40;88.70
16999;DHT22;10211;49.476;11.010;2023-05-07T08:55:36;22.40;88.70
16999;DHT22;10211;49.476;11.010;2023-05-07T08:58:03;22.70;89.70
16999;DHT22;10211;49.476;11.010;2023-05-07T09:00:30;22.70;88.00
16999;DHT22;10211;49.476;11.010;2023-05-07T09:02:57;22.80;88.70
16999;DHT22;10211;49.476;11.010;2023-05-07T09:05:23;23.00;87.10
16999;DHT22;10211;49.476;11.010;2023-05-07T09:07:52;23.30;86.20
16999;DHT22;10211;49.476;11.010;2023-05-07T09:10:21;23.30;85.40
16999;DHT22;10211;49.476;11.010;2023-05-07T09:12:47;23.30;84.60
16999;DHT22;10211;49.476;11.010;2023-05-07T09:15:14;23.10;85.10
16999;DHT22;10211;49.476;11.010;2023-05-07T09:17:41;22.80;84.30
16999;DHT22;10211;49.476;11.010;2023-05-07T09:20:10;22.80;86.20
16999;DHT22;10211;49.476;11.010;2023-05-07T09:22:37;22.90;86.10
16999;DHT22;10211;49.476;11.010;2023-05-07T09:25:06;23.00;85.10
16999;DHT22;10211;49.476;11.010;2023-05-07T09:27:33;23.20;86.40
16999;DHT22;10211;49.476;11.010;2023-05-07T09:30:03;23.00;85.10
16999;DHT22;10211;49.476;11.010;2023-05-07T09:32:34;22.90;84.70
16999;DHT22;10211;49.476;11.010;2023-05-07T09:35:01;22.80;85.00
16999;DHT22;10211;49.476;11.010;2023-05-07T09:37:28;22.80;84.90
16999;DHT22;10211;49.476;11.010;2023-05-07T09:39:57;22.80;86.30
16999;DHT22;10211;49.476;11.010;2023-05-07T09:42:25;23.80;84.90
16999;DHT22;10211;49.476;11.010;2023-05-07T09:44:52;26.50;80.90
16999;DHT22;10211;49.476;11.010;2023-05-07T09:47:19;30.30;71.20
16999;DHT22;10211;49.476;11.010;2023-05-07T09:49:47;32.80;60.80
16999;DHT22;10211;49.476;11.010;2023-05-07T09:52:15;34.90;56.90
16999;DHT22;10211;49.476;11.010;2023-05-07T09:54:43;37.20;53.30
16999;DHT22;10211;49.476;11.010;2023-05-07T09:57:11;39.40;49.20
16999;DHT22;10211;49.476;11.010;2023-05-07T09:59:43;39.70;45.70
16999;DHT22;10211;49.476;11.010;2023-05-07T10:02:10;40.90;44.30
16999;DHT22;10211;49.476;11.010;2023-05-07T10:04:38;40.70;43.10
16999;DHT22;10211;49.476;11.010;2023-05-07T10:07:07;40.70;42.60
16999;DHT22;10211;49.476;11.010;2023-05-07T10:09:34;41.20;42.30
16999;DHT22;10211;49.476;11.010;2023-05-07T10:12:05;40.30;41.90
16999;DHT22;10211;49.476;11.010;2023-05-07T10:14:32;40.90;42.00
16999;DHT22;10211;49.476;11.010;2023-05-07T10:17:00;41.60;41.10
16999;DHT22;10211;49.476;11.010;2023-05-07T10:19:29;42.00;41.00
16999;DHT22;10211;49.476;11.010;2023-05-07T10:22:00;42.70;40.70
16999;DHT22;10211;49.476;11.010;2023-05-07T10:24:31;43.00;40.00
16999;DHT22;10211;49.476;11.010;2023-05-07T10:27:01;42.70;39.00
16999;DHT22;10211;49.476;11.010;2023-05-07T10:29:35;41.00;40.20
16999;DHT22;10211;49.476;11.010;2023-05-07T10:32:18;41.00;40.80
16999;DHT22;10211;49.476;11.010;2023-05-07T10:34:48;38.80;43.00
16999;DHT22;10211;49.476;11.010;2023-05-07T10:37:17;36.80;44.40
16999;DHT22;10211;49.476;11.010;2023-05-07T10:39:44;35.20;45.70
16999;DHT22;10211;49.476;11.010;2023-05-07T10:42:12;33.50;49.00
16999;DHT22;10211;49.476;11.010;2023-05-07T10:44:39;32.40;50.30
16999;DHT22;10211;49.476;11.010;2023-05-07T10:47:09;32.20;52.10
16999;DHT22;10211;49.476;11.010;2023-05-07T10:49:37;32.50;50.20
16999;DHT22;10211;49.476;11.010;2023-05-07T10:52:14;34.80;48.40
16999;DHT22;10211;49.476;11.010;2023-05-07T10:54:41;37.00;44.80
16999;DHT22;10211;49.476;11.010;2023-05-07T10:57:33;37.50;44.30
16999;DHT22;10211;49.476;11.010;2023-05-07T11:00:01;37.60;43.60
16999;DHT22;10211;49.476;11.010;2023-05-07T11:05:32;40.10;41.70
16999;DHT22;10211;49.476;11.010;2023-05-07T11:08:00;38.30;42.80
16999;DHT22;10211;49.476;11.010;2023-05-07T11:10:48;35.90;44.20
16999;DHT22;10211;49.476;11.010;2023-05-07T11:13:16;33.20;46.90
16999;DHT22;10211;49.476;11.010;2023-05-07T11:15:47;32.10;49.10
16999;DHT22;10211;49.476;11.010;2023-05-07T11:18:15;32.50;48.80
16999;DHT22;10211;49.476;11.010;2023-05-07T11:20:54;32.50;49.50
16999;DHT22;10211;49.476;11.010;2023-05-07T11:23:55;32.00;50.00
16999;DHT22;10211;49.476;11.010;2023-05-07T11:26:23;31.00;50.30
16999;DHT22;10211;49.476;11.010;2023-05-07T11:28:51;30.70;51.80
16999;DHT22;10211;49.476;11.010;2023-05-07T11:31:21;31.30;51.00
16999;DHT22;10211;49.476;11.010;2023-05-07T11:33:49;32.50;48.90
16999;DHT22;10211;49.476;11.010;2023-05-07T11:36:18;33.40;48.50
16999;DHT22;10211;49.476;11.010;2023-05-07T11:38:46;35.40;47.30
16999;DHT22;10211;49.476;11.010;2023-05-07T11:41:12;36.10;44.50
16999;DHT22;10211;49.476;11.010;2023-05-07T11:43:53;35.90;44.40
16999;DHT22;10211;49.476;11.010;2023-05-07T11:46:20;36.00;45.70
16999;DHT22;10211;49.476;11.010;2023-05-07T11:48:47;35.70;45.40
16999;DHT22;10211;49.476;11.010;2023-05-07T11:51:20;36.50;44.20
16999;DHT22;10211;49.476;11.010;2023-05-07T11:53:47;37.40;43.70
16999;DHT22;10211;49.476;11.010;2023-05-07T11:56:15;36.00;44.10
16999;DHT22;10211;49.476;11.010;2023-05-07T11:58:43;34.50;45.80
16999;DHT22;10211;49.476;11.010;2023-05-07T12:01:12;33.90;47.60
16999;DHT22;10211;49.476;11.010;2023-05-07T12:03:40;33.20;47.80
16999;DHT22;10211;49.476;11.010;2023-05-07T12:06:09;32.50;48.80
16999;DHT22;10211;49.476;11.010;2023-05-07T12:08:38;31.50;49.20
16999;DHT22;10211;49.476;11.010;2023-05-07T12:11:07;30.90;50.40
16999;DHT22;10211;49.476;11.010;2023-05-07T12:13:35;30.00;50.70
16999;DHT22;10211;49.476;11.010;2023-05-07T12:16:02;29.40;52.60
16999;DHT22;10211;49.476;11.010;2023-05-07T12:18:30;28.70;53.90
16999;DHT22;10211;49.476;11.010;2023-05-07T12:20:57;28.10;54.10
16999;DHT22;10211;49.476;11.010;2023-05-07T12:23:25;28.00;55.20
16999;DHT22;10211;49.476;11.010;2023-05-07T12:25:54;28.40;55.70
16999;DHT22;10211;49.476;11.010;2023-05-07T12:28:20;28.50;55.10
16999;DHT22;10211;49.476;11.010;2023-05-07T12:30:48;28.30;55.70
16999;DHT22;10211;49.476;11.010;2023-05-07T12:33:17;28.50;56.10
16999;DHT22;10211;49.476;11.010;2023-05-07T12:35:47;29.10;54.60
16999;DHT22;10211;49.476;11.010;2023-05-07T12:38:16;29.00;55.80
16999;DHT22;10211;49.476;11.010;2023-05-07T12:40:44;28.50;55.70
16999;DHT22;10211;49.476;11.010;2023-05-07T12:43:17;27.60;56.60
16999;DHT22;10211;49.476;11.010;2023-05-07T12:45:44;27.00;58.20
16999;DHT22;10211;49.476;11.010;2023-05-07T12:48:11;26.60;59.10
16999;DHT22;10211;49.476;11.010;2023-05-07T12:50:38;26.40;59.20
16999;DHT22;10211;49.476;11.010;2023-05-07T12:53:06;26.00;60.00
16999;DHT22;10211;49.476;11.010;2023-05-07T12:55:40;25.80;61.30
16999;DHT22;10211;49.476;11.010;2023-05-07T12:58:07;26.30;60.80
16999;DHT22;10211;49.476;11.010;2023-05-07T13:00:37;26.90;59.40
16999;DHT22;10211;49.476;11.010;2023-05-07T13:03:04;27.10;58.20
16999;DHT22;10211;49.476;11.010;2023-05-07T13:05:31;26.90;59.00
16999;DHT22;10211;49.476;11.010;2023-05-07T13:07:58;26.80;58.90
16999;DHT22;10211;49.476;11.010;2023-05-07T13:10:26;26.90;59.70
16999;DHT22;10211;49.476;11.010;2023-05-07T13:12:53;27.10;58.90
16999;DHT22;10211;49.476;11.010;2023-05-07T13:15:20;27.00;58.70
16999;DHT22;10211;49.476;11.010;2023-05-07T13:17:48;26.90;58.30
16999;DHT22;10211;49.476;11.010;2023-05-07T13:20:15;26.80;58.40
16999;DHT22;10211;49.476;11.010;2023-05-07T13:22:42;26.70;58.50
16999;DHT22;10211;49.476;11.010;2023-05-07T13:25:09;26.70;59.10
16999;DHT22;10211;49.476;11.010;2023-05-07T13:27:36;26.70;59.30
16999;DHT22;10211;49.476;11.010;2023-05-07T13:30:04;26.60;57.70
16999;DHT22;10211;49.476;11.010;2023-05-07T13:32:30;26.60;58.40
16999;DHT22;10211;49.476;11.010;2023-05-07T13:34:59;26.40;57.90
16999;DHT22;10211;49.476;11.010;2023-05-07T13:37:26;26.40;59.30
16999;DHT22;10211;49.476;11.010;2023-05-07T13:39:52;26.50;59.30
16999;DHT22;10211;49.476;11.010;2023-05-07T13:42:19;26.70;59.40
16999;DHT22;10211;49.476;11.010;2023-05-07T13:44:46;27.10;59.90
16999;DHT22;10211;49.476;11.010;2023-05-07T13:47:12;27.50;57.80
16999;DHT22;10211;49.476;11.010;2023-05-07T13:49:39;27.80;57.80
16999;DHT22;10211;49.476;11.010;2023-05-07T13:52:07;27.80;55.90
16999;DHT22;10211;49.476;11.010;2023-05-07T13:54:34;27.80;55.80
16999;DHT22;10211;49.476;11.010;2023-05-07T13:57:01;27.70;56.90
16999;DHT22;10211;49.476;11.010;2023-05-07T13:59:28;27.60;56.30
16999;DHT22;10211;49.476;11.010;2023-05-07T14:01:54;27.40;56.80
16999;DHT22;10211;49.476;11.010;2023-05-07T14:04:21;27.40;57.00
16999;DHT22;10211;49.476;11.010;2023-05-07T14:06:48;27.10;57.80
16999;DHT22;10211;49.476;11.010;2023-05-07T14:09:16;26.90;57.70
16999;DHT22;10211;49.476;11.010;2023-05-07T14:11:43;26.70;58.10
16999;DHT22;10211;49.476;11.010;2023-05-07T14:14:10;26.50;57.80
16999;DHT22;10211;49.476;11.010;2023-05-07T14:16:37;26.30;59.10
16999;DHT22;10211;49.476;11.010;2023-05-07T14:19:04;26.20;59.30
16999;DHT22;10211;49.476;11.010;2023-05-07T14:21:31;26.00;60.00
16999;DHT22;10211;49.476;11.010;2023-05-07T14:23:57;25.80;60.20
16999;DHT22;10211;49.476;11.010;2023-05-07T14:26:26;25.70;60.00
16999;DHT22;10211;49.476;11.010;2023-05-07T14:28:53;25.50;59.70
16999;DHT22;10211;49.476;11.010;2023-05-07T14:31:22;25.40;60.30
16999;DHT22;10211;49.476;11.010;2023-05-07T14:33:49;25.20;59.90
16999;DHT22;10211;49.476;11.010;2023-05-07T14:36:16;25.10;60.10
16999;DHT22;10211;49.476;11.010;2023-05-07T14:38:43;25.10;60.70
16999;DHT22;10211;49.476;11.010;2023-05-07T14:41:10;25.00;61.80
16999;DHT22;10211;49.476;11.010;2023-05-07T14:43:38;24.90;62.10
16999;DHT22;10211;49.476;11.010;2023-05-07T14:46:05;24.80;61.30
16999;DHT22;10211;49.476;11.010;2023-05-07T14:48:31;24.60;62.40
16999;DHT22;10211;49.476;11.010;2023-05-07T14:50:58;24.50;63.00
16999;DHT22;10211;49.476;11.010;2023-05-07T14:53:25;24.50;62.80
16999;DHT22;10211;49.476;11.010;2023-05-07T14:55:52;24.60;63.00
16999;DHT22;10211;49.476;11.010;2023-05-07T14:58:18;24.70;63.50
16999;DHT22;10211;49.476;11.010;2023-05-07T15:00:46;24.70;63.20
16999;DHT22;10211;49.476;11.010;2023-05-07T15:03:14;24.70;63.10
16999;DHT22;10211;49.476;11.010;2023-05-07T15:05:40;24.70;62.80
16999;DHT22;10211;49.476;11.010;2023-05-07T15:08:08;24.60;63.00
16999;DHT22;10211;49.476;11.010;2023-05-07T15:10:35;24.60;63.50
16999;DHT22;10211;49.476;11.010;2023-05-07T15:13:06;24.60;63.40
16999;DHT22;10211;49.476;11.010;2023-05-07T15:15:33;24.70;63.10
16999;DHT22;10211;49.476;11.010;2023-05-07T15:18:01;24.70;63.20
16999;DHT22;10211;49.476;11.010;2023-05-07T15:20:28;24.80;62.50